Sarah Schulte — 5BPA3 — position and weather

sailwx.info

Track history (hours):
 
Tides and Currents Weather Stations Pressure Air Temp Water Temp Dewpoint Dewpoint Depression Visibility Wind Speed Wind Dir Waves Ship Positions

Sarah Schulte

Last reported at 2016-Jul-18 20:33 UTC. Time now 2016-Jul-25 02:22 UTC.
Position N 01°15' E 104°01'.

Length 222 m; draft 11.1 m.

Type: Ship (hazmat cat A). MMSI: 210409000.

Date/timePositionNaut miles runAvg speedWind from/ knotsBaromVisibWave heightAir tempDewpointWater temp
2016-Jul-18 20:33N 01°15' E 104°01'1514.8
2016-Jul-18 19:32N 01°09' E 103°47'4 0.1
2016-Jul-17 00:11N 01°12' E 103°50'913.2
2016-Jul-16 23:32N 01°15' E 103°58'  
2016-Jul-13 09:24N 24°08' E 118°18'1517.6
2016-Jul-13 08:33N 24°20' E 118°10'11 2.0
2016-Jul-13 03:08N 24°30' E 118°05'0 0.0
2016-Jul-13 02:08N 24°30' E 118°05'0 0.0
2016-Jul-13 01:32N 24°30' E 118°05'0 0.0
2016-Jul-13 00:16N 24°30' E 118°05'0 0.0
2016-Jul-12 21:30N 24°30' E 118°05'0 0.0
2016-Jul-12 20:06N 24°30' E 118°05'0 0.0
2016-Jul-12 19:14N 24°30' E 118°05'0 0.0
2016-Jul-12 18:31N 24°30' E 118°05'3 3.2
2016-Jul-12 17:31N 24°28' E 118°03'9 9.3
2016-Jul-12 16:33N 24°21' E 118°10'4 2.9
2016-Jul-12 15:19N 24°19' E 118°13'2 1.1
2016-Jul-12 13:33N 24°18' E 118°12'  
Track history (hours):
 
Tides and Currents Weather Stations Pressure Air Temp Water Temp Dewpoint Dewpoint Depression Visibility Wind Speed Wind Dir Waves Ship Positions

Sarah Schulte

Last reported at 2016-Jul-18 20:33 UTC. Time now 2016-Jul-25 02:22 UTC.
Position N 01°15' E 104°01'.

Length 222 m; draft 11.1 m.

Type: Ship (hazmat cat A). MMSI: 210409000.

Date/timePositionNaut miles runAvg speedWind from/ knotsBaromVisibWave heightAir tempDewpointWater temp
2016-Jul-18 20:33N 01°15' E 104°01'1514.8
2016-Jul-18 19:32N 01°09' E 103°47'4 0.1
2016-Jul-17 00:11N 01°12' E 103°50'913.2
2016-Jul-16 23:32N 01°15' E 103°58'  
2016-Jul-13 09:24N 24°08' E 118°18'1517.6
2016-Jul-13 08:33N 24°20' E 118°10'11 2.0
2016-Jul-13 03:08N 24°30' E 118°05'0 0.0
2016-Jul-13 02:08N 24°30' E 118°05'0 0.0
2016-Jul-13 01:32N 24°30' E 118°05'0 0.0
2016-Jul-13 00:16N 24°30' E 118°05'0 0.0
2016-Jul-12 21:30N 24°30' E 118°05'0 0.0
2016-Jul-12 20:06N 24°30' E 118°05'0 0.0
2016-Jul-12 19:14N 24°30' E 118°05'0 0.0
2016-Jul-12 18:31N 24°30' E 118°05'3 3.2
2016-Jul-12 17:31N 24°28' E 118°03'9 9.3
2016-Jul-12 16:33N 24°21' E 118°10'4 2.9
2016-Jul-12 15:19N 24°19' E 118°13'2 1.1
2016-Jul-12 13:33N 24°18' E 118°12'  

Dump ship's entire track history